Time;durP1;ratioP1;P1;durP2;ratioP2;P2;SDS_P1;SDS_P2;PMS_P1;PMS_P2;Temp;Humidity;BMP_temperature;BMP_pressure;BME280_temperature;BME280_humidity;BME280_pressure;Samples;Min_cycle;Max_cycle;Signal;HPM_P1;HPM_P2
2022/09/24 00:02:03;;;;;;;7.60;2.10;;;20.50;84.90;;;;;;5071427;28;20103;-54
2022/09/24 00:04:31;;;;;;;7.65;1.90;;;20.50;84.60;;;;;;5071452;28;20475;-54
2022/09/24 00:06:59;;;;;;;6.80;2.05;;;20.40;84.30;;;;;;5071442;28;20036;-56
2022/09/24 00:09:27;;;;;;;5.32;1.60;;;20.40;84.20;;;;;;5071007;28;20032;-56
2022/09/24 00:11:55;;;;;;;7.85;1.50;;;20.40;84.00;;;;;;5070747;28;20081;-56
2022/09/24 00:14:23;;;;;;;5.13;1.33;;;20.40;83.90;;;;;;5069792;28;20029;-55
2022/09/24 00:16:51;;;;;;;4.40;1.33;;;20.40;83.80;;;;;;5071293;28;20499;-56
2022/09/24 00:19:19;;;;;;;5.55;1.50;;;20.40;83.60;;;;;;5071285;28;20667;-55
2022/09/24 00:21:47;;;;;;;6.47;1.50;;;20.40;83.60;;;;;;5069653;28;20052;-56
2022/09/24 00:27:06;;;;;;;6.10;1.45;;;20.30;83.10;;;;;;5070757;28;20479;-55
2022/09/24 00:29:34;;;;;;;5.90;1.65;;;20.40;83.20;;;;;;5071170;28;20041;-56
2022/09/24 00:32:04;;;;;;;3.92;1.10;;;20.40;83.10;;;;;;5070777;28;20103;-55
2022/09/24 00:34:33;;;;;;;5.95;1.27;;;20.30;83.00;;;;;;5071051;28;20112;-55
2022/09/24 00:37:01;;;;;;;6.65;1.20;;;20.30;82.90;;;;;;5070914;28;20013;-55
2022/09/24 00:39:29;;;;;;;3.53;1.20;;;20.40;82.80;;;;;;5070691;28;20052;-54
2022/09/24 00:41:57;;;;;;;5.07;1.33;;;20.40;82.60;;;;;;5071358;28;20025;-55
2022/09/24 00:44:44;;;;;;;7.57;1.35;;;20.40;82.60;;;;;;5071021;28;20032;-55
2022/09/24 00:47:22;;;;;;;4.40;1.50;;;20.40;82.70;;;;;;5069146;28;20029;-55
2022/09/24 00:49:51;;;;;;;5.28;1.30;;;20.30;82.40;;;;;;5070982;28;20043;-55
2022/09/24 00:52:19;;;;;;;5.57;1.17;;;20.40;82.40;;;;;;5069104;28;20539;-55
2022/09/24 00:54:48;;;;;;;5.50;1.33;;;20.40;82.30;;;;;;5070512;28;20074;-55
2022/09/24 00:57:17;;;;;;;7.45;1.17;;;20.40;82.40;;;;;;5070101;28;20020;-55
2022/09/24 00:59:45;;;;;;;5.22;1.08;;;20.30;82.30;;;;;;5070463;28;20110;-55
2022/09/24 01:02:13;;;;;;;5.25;1.17;;;20.40;82.30;;;;;;5070227;28;20051;-55
2022/09/24 01:04:42;;;;;;;4.13;1.13;;;20.40;82.00;;;;;;5052773;28;20056;-55
2022/09/24 01:07:10;;;;;;;7.22;1.25;;;20.40;81.90;;;;;;5068795;28;20040;-55
2022/09/24 01:09:39;;;;;;;8.70;1.30;;;20.40;81.80;;;;;;5069074;28;20032;-55
2022/09/24 01:12:29;;;;;;;5.15;1.67;;;20.30;81.60;;;;;;5068103;28;20497;-55
2022/09/24 01:15:03;;;;;;;7.20;1.20;;;20.30;81.60;;;;;;5069725;28;20028;-54
2022/09/24 01:17:40;;;;;;;6.05;1.38;;;20.40;81.40;;;;;;5070160;28;20024;-54
2022/09/24 01:20:33;;;;;;;4.72;1.38;;;20.30;81.30;;;;;;5069909;28;20035;-54
2022/09/24 01:23:14;;;;;;;3.40;1.10;;;20.30;81.20;;;;;;5069043;28;20028;-55
2022/09/24 01:26:04;;;;;;;3.72;1.00;;;20.40;81.10;;;;;;5070497;28;20539;-54
2022/09/24 01:28:51;;;;;;;5.30;1.20;;;20.40;81.00;;;;;;5069575;28;20082;-55
2022/09/24 01:31:31;;;;;;;5.07;1.00;;;20.40;80.70;;;;;;5068879;28;20040;-54
2022/09/24 01:34:04;;;;;;;2.97;1.00;;;20.40;79.80;;;;;;5070369;28;20029;-55
2022/09/24 01:36:38;;;;;;;3.33;0.95;;;20.40;79.40;;;;;;5069009;28;20483;-57
2022/09/24 01:39:08;;;;;;;3.38;0.90;;;20.40;79.10;;;;;;5070260;28;20556;-54
2022/09/24 01:41:38;;;;;;;2.95;0.90;;;20.40;79.00;;;;;;5070173;28;20329;-54
2022/09/24 01:44:08;;;;;;;3.97;1.20;;;20.40;78.50;;;;;;5069814;28;20494;-56
2022/09/24 01:46:40;;;;;;;3.80;1.05;;;20.40;78.30;;;;;;5070324;28;20107;-56
2022/09/24 01:49:09;;;;;;;2.80;0.95;;;20.40;78.30;;;;;;5068699;28;20040;-56
2022/09/24 01:51:57;;;;;;;3.67;1.10;;;20.40;78.80;;;;;;5068935;28;20025;-56
2022/09/24 01:54:40;;;;;;;3.15;1.00;;;20.40;78.00;;;;;;5070637;28;20111;-56
2022/09/24 01:57:18;;;;;;;4.32;1.00;;;20.40;77.50;;;;;;5069616;28;20056;-56
2022/09/24 02:00:10;;;;;;;2.92;0.80;;;20.40;77.60;;;;;;5068717;28;20025;-54
2022/09/24 02:02:44;;;;;;;3.13;1.08;;;20.40;77.60;;;;;;5069738;28;20020;-54
2022/09/24 02:05:12;;;;;;;7.70;1.10;;;20.40;77.70;;;;;;5068669;28;20044;-55
2022/09/24 02:08:08;;;;;;;3.25;1.00;;;20.30;77.50;;;;;;5051944;28;20119;-55
2022/09/24 02:11:10;;;;;;;3.92;1.08;;;20.30;77.40;;;;;;5058892;28;20048;-54
2022/09/24 02:13:46;;;;;;;3.60;1.10;;;20.40;77.60;;;;;;5069413;28;20028;-55
2022/09/24 02:16:20;;;;;;;4.43;1.00;;;20.30;77.30;;;;;;5069749;28;20078;-55
2022/09/24 02:18:54;;;;;;;5.35;1.05;;;20.30;77.30;;;;;;5068507;28;20152;-55
2022/09/24 02:21:25;;;;;;;4.47;1.23;;;20.30;77.50;;;;;;5069962;28;20029;-55
2022/09/24 02:24:02;;;;;;;3.72;1.00;;;20.30;77.70;;;;;;5069883;28;20104;-56
2022/09/24 02:26:31;;;;;;;3.60;1.10;;;20.20;77.70;;;;;;5069984;28;20052;-56
2022/09/24 02:28:59;;;;;;;3.85;1.05;;;20.20;77.60;;;;;;5069364;28;20036;-56
2022/09/24 02:31:32;;;;;;;3.78;1.10;;;20.20;77.30;;;;;;5070309;28;20028;-56
2022/09/24 02:34:21;;;;;;;3.45;0.90;;;20.30;77.00;;;;;;5071297;28;20027;-56
2022/09/24 02:37:04;;;;;;;4.25;0.85;;;20.30;77.60;;;;;;5071975;28;20076;-56
2022/09/24 02:39:32;;;;;;;3.10;1.35;;;20.30;76.80;;;;;;5073230;28;20055;-56
2022/09/24 02:42:03;;;;;;;6.25;1.45;;;20.20;76.30;;;;;;5073021;28;20146;-56
2022/09/24 02:44:33;;;;;;;2.35;0.80;;;20.20;76.40;;;;;;5073315;28;20096;-56
2022/09/24 02:47:01;;;;;;;3.30;0.98;;;20.20;76.40;;;;;;5072771;28;20032;-57
2022/09/24 02:49:29;;;;;;;4.72;1.00;;;20.20;76.40;;;;;;5072130;28;20090;-58
2022/09/24 02:51:57;;;;;;;3.40;1.10;;;20.20;76.20;;;;;;5073435;28;20356;-56
2022/09/24 02:54:26;;;;;;;3.72;1.15;;;20.20;76.20;;;;;;5073461;28;20064;-56
2022/09/24 02:56:54;;;;;;;4.75;1.00;;;20.20;76.20;;;;;;5073054;28;20078;-56
2022/09/24 02:59:22;;;;;;;6.88;1.48;;;20.20;76.30;;;;;;5072447;28;20093;-55
2022/09/24 03:01:50;;;;;;;3.15;1.10;;;20.20;76.50;;;;;;5072703;28;20070;-56
2022/09/24 03:04:18;;;;;;;3.25;1.00;;;20.20;76.60;;;;;;5072611;28;20032;-56
2022/09/24 03:06:46;;;;;;;4.15;1.13;;;20.20;76.60;;;;;;5072774;28;20027;-56
2022/09/24 03:09:15;;;;;;;4.43;0.85;;;20.20;76.50;;;;;;5072525;28;20036;-56
2022/09/24 03:11:43;;;;;;;3.47;1.08;;;20.20;76.30;;;;;;5072645;28;20040;-55
2022/09/24 03:14:11;;;;;;;7.85;1.30;;;20.20;76.30;;;;;;5072108;28;20096;-56
2022/09/24 03:16:39;;;;;;;6.72;1.63;;;20.20;76.50;;;;;;5072362;28;20104;-56
2022/09/24 03:19:08;;;;;;;5.38;1.10;;;20.20;76.40;;;;;;5071320;28;20032;-56
2022/09/24 03:21:36;;;;;;;4.65;1.15;;;20.20;76.60;;;;;;5072515;28;20016;-56
2022/09/24 03:24:04;;;;;;;4.10;1.20;;;20.20;76.00;;;;;;5071124;28;20032;-55
2022/09/24 03:26:32;;;;;;;4.47;1.13;;;20.20;76.10;;;;;;5071200;28;20078;-56
2022/09/24 03:29:00;;;;;;;5.18;1.17;;;20.20;76.00;;;;;;5071770;28;20036;-55
2022/09/24 03:31:28;;;;;;;4.63;0.98;;;20.20;75.70;;;;;;5072533;28;20383;-56
2022/09/24 03:33:57;;;;;;;5.38;1.00;;;20.20;75.60;;;;;;5071369;28;20395;-55
2022/09/24 03:36:26;;;;;;;4.72;1.00;;;20.20;75.50;;;;;;5072681;28;20449;-55
2022/09/24 03:38:55;;;;;;;4.20;1.05;;;20.20;75.40;;;;;;5072279;28;20051;-55
2022/09/24 03:41:26;;;;;;;3.92;1.08;;;20.10;75.50;;;;;;5072575;28;20021;-56
2022/09/24 03:43:55;;;;;;;2.78;1.00;;;20.20;75.70;;;;;;5070371;28;20419;-56
2022/09/24 03:46:28;;;;;;;3.72;1.00;;;20.10;75.70;;;;;;5071949;28;20040;-55
2022/09/24 03:48:59;;;;;;;3.13;1.15;;;20.20;75.80;;;;;;5072331;28;20029;-56
2022/09/24 03:51:27;;;;;;;4.60;1.00;;;20.20;75.90;;;;;;5071294;28;20039;-55
2022/09/24 03:53:55;;;;;;;4.13;1.15;;;20.20;76.00;;;;;;5071062;28;20046;-55
2022/09/24 03:56:23;;;;;;;3.92;1.08;;;20.20;76.10;;;;;;5071696;28;20496;-55
2022/09/24 03:58:51;;;;;;;3.53;1.10;;;20.20;76.20;;;;;;5071430;28;20132;-54
2022/09/24 04:01:20;;;;;;;6.30;1.63;;;20.20;76.20;;;;;;5071564;28;20074;-55
2022/09/24 04:03:48;;;;;;;4.05;1.38;;;20.20;76.10;;;;;;5070537;28;20024;-55
2022/09/24 04:06:18;;;;;;;5.40;1.20;;;20.20;76.00;;;;;;5071621;28;20048;-55
2022/09/24 04:08:46;;;;;;;2.17;1.30;;;20.20;76.00;;;;;;5070135;28;20056;-55
2022/09/24 04:11:14;;;;;;;3.80;1.30;;;20.20;76.10;;;;;;5071571;28;20037;-55
2022/09/24 04:13:42;;;;;;;4.50;1.00;;;20.20;76.40;;;;;;5071034;28;20554;-55
2022/09/24 04:16:11;;;;;;;3.78;1.10;;;20.20;76.50;;;;;;5069997;28;20441;-55
2022/09/24 04:18:38;;;;;;;5.60;1.15;;;20.20;76.70;;;;;;5069959;28;20055;-55
2022/09/24 04:21:07;;;;;;;4.30;1.20;;;20.20;76.90;;;;;;5071414;28;20386;-55
2022/09/24 04:23:35;;;;;;;6.25;1.10;;;20.20;77.10;;;;;;5070032;28;20035;-55
2022/09/24 04:26:04;;;;;;;6.38;1.25;;;20.20;77.30;;;;;;5071147;28;20071;-55
2022/09/24 04:28:32;;;;;;;5.50;1.20;;;20.20;77.50;;;;;;5070756;28;20351;-56
2022/09/24 04:31:00;;;;;;;4.13;1.08;;;20.20;77.70;;;;;;5071036;28;20486;-56
2022/09/24 04:33:28;;;;;;;3.47;1.00;;;20.20;77.80;;;;;;5071234;28;20107;-56
2022/09/24 04:35:56;;;;;;;3.40;1.15;;;20.20;77.80;;;;;;5071353;28;20035;-56
2022/09/24 04:38:24;;;;;;;5.50;1.30;;;20.20;77.80;;;;;;5071169;28;20463;-56
2022/09/24 04:40:53;;;;;;;4.65;1.30;;;20.20;77.60;;;;;;5070945;28;20376;-56
2022/09/24 04:43:21;;;;;;;4.32;1.15;;;20.20;77.60;;;;;;5069344;28;20028;-56
2022/09/24 04:45:50;;;;;;;2.90;1.10;;;20.20;77.70;;;;;;5070700;28;20028;-56
2022/09/24 04:48:18;;;;;;;5.70;1.60;;;20.20;77.70;;;;;;5069195;28;20054;-57
2022/09/24 04:50:47;;;;;;;4.38;1.25;;;20.20;77.70;;;;;;5070728;28;20044;-56
2022/09/24 04:53:15;;;;;;;6.65;1.20;;;20.20;77.70;;;;;;5070595;28;20068;-56
2022/09/24 04:55:43;;;;;;;4.20;1.15;;;20.20;77.70;;;;;;5070294;28;20431;-56
2022/09/24 04:58:11;;;;;;;3.72;1.23;;;20.30;77.70;;;;;;5070125;28;20055;-56
2022/09/24 05:00:39;;;;;;;5.93;1.40;;;20.20;77.60;;;;;;5070648;28;20025;-56
2022/09/24 05:03:07;;;;;;;4.38;1.10;;;20.30;77.50;;;;;;5069069;28;20112;-56
2022/09/24 05:05:36;;;;;;;4.63;1.52;;;20.20;77.20;;;;;;5070541;28;20468;-56
2022/09/24 05:08:03;;;;;;;5.00;1.38;;;20.30;76.90;;;;;;5070487;28;20348;-56
2022/09/24 05:10:32;;;;;;;5.97;1.60;;;20.20;76.80;;;;;;5070550;28;20044;-56
2022/09/24 05:13:01;;;;;;;5.95;1.30;;;20.30;76.90;;;;;;5068771;28;20060;-56
2022/09/24 05:15:29;;;;;;;4.03;1.23;;;20.30;76.90;;;;;;5070335;28;20028;-57
2022/09/24 05:17:57;;;;;;;3.35;1.17;;;20.30;76.90;;;;;;5070692;28;20013;-56
2022/09/24 05:20:26;;;;;;;7.45;1.70;;;20.30;76.70;;;;;;5070892;28;20379;-56
2022/09/24 05:22:54;;;;;;;4.53;1.40;;;20.30;76.60;;;;;;5070517;28;20024;-55
2022/09/24 05:25:22;;;;;;;4.40;1.40;;;20.30;76.50;;;;;;5068962;28;20077;-56
2022/09/24 05:27:52;;;;;;;5.75;1.42;;;20.30;76.30;;;;;;5069981;28;20518;-56
2022/09/24 05:30:23;;;;;;;5.28;1.20;;;20.30;76.10;;;;;;5070315;28;20040;-56
2022/09/24 05:32:51;;;;;;;6.13;1.50;;;20.30;76.10;;;;;;5070291;28;20020;-56
2022/09/24 05:35:23;;;;;;;4.18;1.50;;;20.30;76.10;;;;;;5070206;28;20055;-56
2022/09/24 05:37:52;;;;;;;4.07;1.20;;;20.30;76.10;;;;;;5068758;28;20033;-56
2022/09/24 05:43:06;;;;;;;3.85;1.27;;;20.30;76.00;;;;;;5069679;28;20059;-56
2022/09/24 05:45:34;;;;;;;4.18;1.63;;;20.30;75.90;;;;;;5070080;28;20360;-56
2022/09/24 05:48:03;;;;;;;4.45;1.30;;;20.30;76.00;;;;;;5068746;28;20044;-56
2022/09/24 05:50:33;;;;;;;4.80;1.50;;;20.30;76.10;;;;;;5070058;28;20397;-56
2022/09/24 05:53:03;;;;;;;4.78;1.52;;;20.30;76.10;;;;;;5068756;28;20033;-56
2022/09/24 05:55:32;;;;;;;7.30;1.52;;;20.30;76.30;;;;;;5068847;28;20055;-56
2022/09/24 05:58:06;;;;;;;5.05;1.50;;;20.30;76.50;;;;;;5069797;28;20029;-56
2022/09/24 06:00:35;;;;;;;4.28;1.40;;;20.30;76.80;;;;;;5070154;28;20032;-56
2022/09/24 06:03:06;;;;;;;3.17;1.38;;;20.30;77.10;;;;;;5069878;28;20016;-56
2022/09/24 06:05:35;;;;;;;7.53;1.65;;;20.20;77.30;;;;;;5070037;28;20037;-56
2022/09/24 06:08:05;;;;;;;5.43;1.52;;;20.30;77.50;;;;;;5070231;28;20028;-56
2022/09/24 06:10:33;;;;;;;4.32;1.50;;;20.30;77.70;;;;;;5074024;28;20036;-56
2022/09/24 06:13:01;;;;;;;6.53;1.65;;;20.30;77.80;;;;;;5071772;28;20017;-56
2022/09/24 06:15:29;;;;;;;3.78;1.40;;;20.30;77.90;;;;;;5073588;28;20452;-57
2022/09/24 06:17:57;;;;;;;3.80;1.30;;;20.20;78.00;;;;;;5072580;28;20036;-56
2022/09/24 06:20:26;;;;;;;7.97;1.50;;;20.30;78.20;;;;;;5074086;28;20032;-55
2022/09/24 06:22:57;;;;;;;5.20;1.40;;;20.20;78.20;;;;;;5073552;28;20098;-56
2022/09/24 06:25:26;;;;;;;6.53;1.63;;;20.30;78.40;;;;;;5074337;28;20020;-56
2022/09/24 06:27:59;;;;;;;6.00;1.55;;;20.30;78.50;;;;;;5073525;28;20032;-56
2022/09/24 06:30:40;;;;;;;5.30;1.50;;;20.30;78.70;;;;;;5073622;28;20036;-56
2022/09/24 06:33:11;;;;;;;3.75;1.35;;;20.30;78.70;;;;;;5072014;28;20075;-56
2022/09/24 06:35:43;;;;;;;4.55;1.52;;;20.30;78.80;;;;;;5073348;28;20356;-56
2022/09/24 06:38:14;;;;;;;8.55;1.80;;;20.30;78.90;;;;;;5073357;28;20099;-55
2022/09/24 06:40:44;;;;;;;7.35;1.80;;;20.30;78.90;;;;;;5071708;28;20048;-56
2022/09/24 06:43:14;;;;;;;4.93;1.60;;;20.30;78.70;;;;;;5072844;28;20052;-56
2022/09/24 06:45:42;;;;;;;5.20;1.55;;;20.30;78.60;;;;;;5072932;28;20103;-56
2022/09/24 06:48:13;;;;;;;6.10;1.60;;;20.30;78.50;;;;;;5073144;28;20024;-56
2022/09/24 06:50:43;;;;;;;6.15;1.80;;;20.30;78.40;;;;;;5073219;28;20090;-56
2022/09/24 06:53:13;;;;;;;4.82;1.40;;;20.30;78.30;;;;;;5073072;28;20021;-56
2022/09/24 06:55:41;;;;;;;5.90;1.73;;;20.40;78.40;;;;;;5071519;28;20027;-56
2022/09/24 06:58:12;;;;;;;4.53;1.60;;;20.40;78.30;;;;;;5071306;28;20062;-56
2022/09/24 07:00:44;;;;;;;9.90;2.10;;;20.40;78.40;;;;;;5072891;28;20028;-56
2022/09/24 07:03:15;;;;;;;5.32;1.55;;;20.40;78.50;;;;;;5071422;28;20119;-55
2022/09/24 07:05:44;;;;;;;5.83;1.60;;;20.30;78.60;;;;;;5072811;28;20480;-57
2022/09/24 07:08:11;;;;;;;4.50;1.50;;;20.30;78.80;;;;;;5072734;28;20032;-56
2022/09/24 07:10:45;;;;;;;4.55;1.60;;;20.30;79.40;;;;;;5071344;28;20036;-55
2022/09/24 07:13:14;;;;;;;4.68;1.70;;;20.30;78.90;;;;;;5072066;28;20396;-55
2022/09/24 07:15:43;;;;;;;5.50;1.77;;;20.30;78.90;;;;;;5071181;28;20055;-55
2022/09/24 07:18:12;;;;;;;9.23;2.13;;;20.30;79.00;;;;;;5072094;28;20025;-55
2022/09/24 07:20:40;;;;;;;7.13;2.00;;;20.40;79.20;;;;;;5072573;28;20083;-54
2022/09/24 07:23:11;;;;;;;4.25;1.60;;;20.30;79.50;;;;;;5072217;28;20039;-55
2022/09/24 07:25:39;;;;;;;6.90;1.88;;;20.30;79.90;;;;;;5072665;28;20475;-55
2022/09/24 07:28:11;;;;;;;5.80;1.80;;;20.30;80.50;;;;;;5070646;28;20074;-54
2022/09/24 07:30:39;;;;;;;5.45;1.83;;;20.30;80.60;;;;;;5072215;28;20032;-55
2022/09/24 07:33:07;;;;;;;5.88;1.75;;;20.30;80.50;;;;;;5072221;28;20033;-54
2022/09/24 07:35:39;;;;;;;5.45;1.70;;;20.30;80.40;;;;;;5070891;28;20044;-55
2022/09/24 07:38:11;;;;;;;5.85;1.75;;;20.30;80.70;;;;;;5070938;28;20024;-54
2022/09/24 07:40:39;;;;;;;6.47;2.10;;;20.30;81.00;;;;;;5070884;28;20052;-54
2022/09/24 07:43:11;;;;;;;11.32;2.10;;;20.30;81.20;;;;;;5070451;28;20024;-55
2022/09/24 07:45:38;;;;;;;;;;;20.30;81.30;;;;;;5070993;28;20033;-55
2022/09/24 07:48:07;;;;;;;6.35;2.00;;;20.30;81.20;;;;;;5072024;28;19905;-55
2022/09/24 07:50:38;;;;;;;5.00;1.90;;;20.30;81.20;;;;;;5070654;28;20051;-55
2022/09/24 07:53:09;;;;;;;7.28;1.90;;;20.30;81.20;;;;;;5071922;28;20467;-55
2022/09/24 07:55:39;;;;;;;7.25;1.92;;;20.30;81.20;;;;;;5071890;28;20025;-54
2022/09/24 07:58:11;;;;;;;7.68;1.88;;;20.30;81.10;;;;;;5070222;28;20020;-55
2022/09/24 08:00:39;;;;;;;;;;;20.30;81.10;;;;;;5072497;28;20020;-55
2022/09/24 08:03:07;;;;;;;5.00;1.80;;;20.30;81.30;;;;;;5071544;28;20393;-55
2022/09/24 08:05:36;;;;;;;7.95;2.10;;;20.30;81.50;;;;;;5072113;28;20044;-55
2022/09/24 08:08:03;;;;;;;8.10;2.47;;;20.30;81.60;;;;;;5053695;28;20028;-55
2022/09/24 08:10:32;;;;;;;6.32;1.90;;;20.30;81.60;;;;;;5070361;28;20037;-55
2022/09/24 08:13:01;;;;;;;8.65;2.30;;;20.30;81.60;;;;;;5070836;28;20429;-55
2022/09/24 08:15:30;;;;;;;8.68;2.25;;;20.30;81.60;;;;;;5070201;28;20438;-55
2022/09/24 08:18:02;;;;;;;10.00;2.33;;;20.30;81.70;;;;;;5070347;28;20020;-55
2022/09/24 08:20:32;;;;;;;6.80;2.08;;;20.30;81.80;;;;;;5070067;28;20103;-54
2022/09/24 08:23:05;;;;;;;6.18;2.20;;;20.30;81.90;;;;;;5071599;28;20047;-55
2022/09/24 08:25:33;;;;;;;5.10;2.03;;;20.30;82.00;;;;;;5071276;28;20021;-55
2022/09/24 08:28:03;;;;;;;6.10;2.78;;;20.30;82.00;;;;;;5070775;28;20471;-55
2022/09/24 08:30:32;;;;;;;8.07;2.67;;;20.30;82.10;;;;;;5068731;28;20480;-55
2022/09/24 08:33:00;;;;;;;8.93;3.08;;;20.30;82.20;;;;;;5071148;28;20451;-55
2022/09/24 08:35:28;;;;;;;7.43;3.10;;;20.30;82.30;;;;;;5070194;28;20471;-55
2022/09/24 08:37:59;;;;;;;7.30;2.50;;;20.30;82.30;;;;;;5070086;28;20017;-55
2022/09/24 08:40:32;;;;;;;6.00;2.50;;;20.30;82.40;;;;;;5071074;28;20048;-55
2022/09/24 08:43:05;;;;;;;6.85;2.35;;;20.20;82.40;;;;;;5069267;28;20028;-55
2022/09/24 08:48:53;;;;;;;7.25;2.72;;;20.30;82.40;;;;;;5055160;28;20487;-55
2022/09/24 08:51:23;;;;;;;8.18;2.55;;;20.20;82.30;;;;;;5070841;28;20032;-55
2022/09/24 08:54:00;;;;;;;5.45;2.22;;;20.30;82.40;;;;;;5069191;28;20031;-55
2022/09/24 08:56:33;;;;;;;6.03;2.40;;;20.20;82.30;;;;;;5071188;28;20028;-54
2022/09/24 08:59:05;;;;;;;6.88;2.70;;;20.20;82.30;;;;;;5070353;28;20029;-55
2022/09/24 09:02:06;;;;;;;7.70;2.88;;;20.30;82.40;;;;;;5070640;28;20104;-55
2022/09/24 09:04:40;;;;;;;10.00;2.85;;;20.30;82.40;;;;;;5070342;28;20501;-55
2022/09/24 09:07:23;;;;;;;7.57;2.83;;;20.20;82.30;;;;;;5070569;28;20082;-55
2022/09/24 09:10:27;;;;;;;5.80;2.55;;;20.30;82.40;;;;;;5070521;28;20051;-54
2022/09/24 09:13:13;;;;;;;7.50;2.47;;;20.30;82.30;;;;;;5067147;28;20029;-55
2022/09/24 09:15:51;;;;;;;9.70;2.60;;;20.30;82.30;;;;;;5069156;28;20048;-55
2022/09/24 09:18:31;;;;;;;8.10;2.55;;;20.20;82.20;;;;;;5070496;28;20059;-55
2022/09/24 09:21:17;;;;;;;7.00;2.67;;;20.20;82.30;;;;;;5070714;28;20048;-59
2022/09/24 09:23:50;;;;;;;9.15;2.90;;;20.20;82.30;;;;;;5069020;28;20036;-56
2022/09/24 09:26:21;;;;;;;6.53;3.30;;;20.20;82.30;;;;;;5069272;28;20078;-55
2022/09/24 09:28:50;;;;;;;7.75;3.22;;;20.20;82.40;;;;;;5068514;28;20429;-56
2022/09/24 09:31:28;;;;;;;7.38;2.80;;;20.20;82.40;;;;;;5070170;28;20024;-56
2022/09/24 09:34:23;;;;;;;9.15;3.10;;;20.20;82.40;;;;;;5070602;28;20398;-56
2022/09/24 09:37:06;;;;;;;5.50;2.70;;;20.20;82.40;;;;;;5068931;28;20033;-55
2022/09/24 09:39:49;;;;;;;12.18;2.92;;;20.20;82.40;;;;;;5070300;28;20049;-55
2022/09/24 09:42:31;;;;;;;6.90;3.38;;;20.20;82.30;;;;;;5070481;28;20040;-56
2022/09/24 09:45:38;;;;;;;7.18;2.80;;;20.20;82.40;;;;;;5074304;28;20036;-57
2022/09/24 09:48:12;;;;;;;7.68;2.92;;;20.10;82.30;;;;;;5074321;28;20029;-55
2022/09/24 09:50:45;;;;;;;7.93;3.28;;;20.20;82.40;;;;;;5074213;28;20619;-55
2022/09/24 09:53:20;;;;;;;6.32;2.83;;;20.20;82.40;;;;;;5074149;28;20017;-56
2022/09/24 09:56:00;;;;;;;7.18;3.00;;;20.10;82.30;;;;;;5074227;28;20028;-55
2022/09/24 09:58:36;;;;;;;8.13;2.60;;;20.20;82.30;;;;;;5072802;28;20017;-55
2022/09/24 10:01:13;;;;;;;7.05;3.10;;;20.10;82.20;;;;;;5073913;28;20360;-56
2022/09/24 10:03:44;;;;;;;7.93;2.90;;;20.20;82.10;;;;;;5072652;28;20033;-56
2022/09/24 10:06:35;;;;;;;8.93;2.95;;;20.20;82.10;;;;;;5074079;28;20062;-55
2022/09/24 10:09:18;;;;;;;7.78;3.03;;;20.20;81.90;;;;;;5073740;28;20540;-55
2022/09/24 10:11:47;;;;;;;6.90;3.03;;;20.20;82.00;;;;;;5073833;28;20214;-55
2022/09/24 10:14:19;;;;;;;7.95;3.03;;;20.20;82.00;;;;;;5055436;28;20025;-56
2022/09/24 10:16:55;;;;;;;7.32;3.08;;;20.20;81.90;;;;;;5073707;28;20032;-55
2022/09/24 10:19:26;;;;;;;7.78;3.05;;;20.20;81.90;;;;;;5073484;28;20336;-55
2022/09/24 10:21:57;;;;;;;8.60;3.50;;;20.20;81.90;;;;;;5072717;28;20036;-55
2022/09/24 10:24:27;;;;;;;7.10;3.00;;;20.10;81.80;;;;;;5074016;28;20071;-55
2022/09/24 10:26:55;;;;;;;6.82;2.83;;;20.10;81.70;;;;;;5074104;28;20029;-55
2022/09/24 10:32:28;;;;;;;6.70;3.35;;;20.10;81.70;;;;;;5073175;28;20044;-55
2022/09/24 10:35:19;;;;;;;6.88;2.92;;;20.10;81.60;;;;;;5072551;28;20028;-55
2022/09/24 10:37:53;;;;;;;6.28;2.80;;;20.10;81.50;;;;;;5073306;28;20031;-55
2022/09/24 10:40:27;;;;;;;8.85;3.28;;;20.10;81.40;;;;;;5072969;28;20052;-56
2022/09/24 10:42:57;;;;;;;8.68;3.00;;;20.10;81.40;;;;;;5073214;28;20044;-55
2022/09/24 10:45:51;;;;;;;6.43;3.00;;;20.10;81.40;;;;;;5073450;28;20056;-55
2022/09/24 10:48:27;;;;;;;8.52;3.22;;;20.10;81.40;;;;;;5031739;28;20048;-54
2022/09/24 10:51:17;;;;;;;8.23;3.30;;;20.10;81.30;;;;;;5073516;28;20051;-55
2022/09/24 10:53:51;;;;;;;6.40;3.10;;;20.10;81.40;;;;;;5070819;28;20112;-55
2022/09/24 10:56:59;;;;;;;9.30;3.55;;;20.00;81.40;;;;;;5071712;28;20040;-55
2022/09/24 10:59:38;;;;;;;6.82;3.15;;;20.00;81.40;;;;;;5011219;28;20037;-55
2022/09/24 11:02:09;;;;;;;7.30;3.10;;;20.00;81.50;;;;;;4994863;28;20473;-55
2022/09/24 11:05:01;;;;;;;10.88;4.53;;;20.00;81.50;;;;;;5041195;28;20032;-55
2022/09/24 11:07:49;;;;;;;;;;;20.00;81.30;;;;;;5071728;28;20036;-55
2022/09/24 11:10:50;;;;;;;8.75;3.67;;;19.90;81.30;;;;;;5071467;28;20298;-55
2022/09/24 11:13:25;;;;;;;10.65;4.07;;;19.90;81.40;;;;;;5072197;28;20028;-55
2022/09/24 11:16:18;;;;;;;7.10;3.50;;;19.90;81.60;;;;;;5072560;28;20115;-55
2022/09/24 11:19:06;;;;;;;8.63;3.63;;;19.90;81.70;;;;;;5071315;28;20020;-55
2022/09/24 11:22:00;;;;;;;6.65;3.20;;;19.90;81.50;;;;;;5071495;28;20112;-55
2022/09/24 11:24:47;;;;;;;8.05;3.50;;;19.90;81.50;;;;;;5072851;28;20111;-56
2022/09/24 11:27:43;;;;;;;8.32;3.80;;;19.90;81.50;;;;;;5072218;28;20048;-55
2022/09/24 11:30:25;;;;;;;7.32;3.42;;;19.90;81.50;;;;;;5070814;28;20068;-55
2022/09/24 11:33:25;;;;;;;7.78;3.65;;;19.90;81.40;;;;;;5072794;28;20021;-54
2022/09/24 11:36:08;;;;;;;8.35;3.60;;;19.90;81.10;;;;;;5072347;28;20456;-55
2022/09/24 11:39:00;;;;;;;8.68;3.70;;;19.90;81.00;;;;;;5072103;28;20024;-55
2022/09/24 11:41:50;;;;;;;7.90;3.50;;;19.90;81.00;;;;;;5072549;28;20111;-55
2022/09/24 11:44:45;;;;;;;7.07;3.35;;;19.80;80.70;;;;;;5071491;28;20257;-55
2022/09/24 11:47:35;;;;;;;7.50;3.58;;;19.80;80.70;;;;;;5071968;28;20028;-55
2022/09/24 11:50:10;;;;;;;6.85;3.55;;;19.80;80.60;;;;;;5071955;28;20036;-55
2022/09/24 11:52:55;;;;;;;7.53;3.28;;;19.90;80.70;;;;;;5070530;28;20058;-54
2022/09/24 11:55:43;;;;;;;6.68;3.20;;;19.90;80.70;;;;;;5054381;28;20383;-55
2022/09/24 11:58:31;;;;;;;9.20;3.67;;;19.90;80.50;;;;;;5071093;28;20138;-55
2022/09/24 12:01:26;;;;;;;7.13;3.13;;;19.90;80.50;;;;;;5071713;28;20423;-55
2022/09/24 12:04:03;;;;;;;8.10;3.30;;;19.90;80.60;;;;;;5070246;28;20029;-55
2022/09/24 12:06:53;;;;;;;7.60;3.38;;;19.90;80.60;;;;;;5070576;28;20024;-55
2022/09/24 12:09:31;;;;;;;6.15;3.30;;;19.90;80.60;;;;;;5071411;28;20040;-56
2022/09/24 12:12:11;;;;;;;6.40;3.45;;;19.90;80.60;;;;;;5071429;28;20031;-55
2022/09/24 12:15:04;;;;;;;8.82;3.38;;;20.00;80.60;;;;;;5071431;28;20035;-56
2022/09/24 12:17:41;;;;;;;6.68;3.15;;;20.00;80.50;;;;;;5071261;28;20086;-56
2022/09/24 12:20:30;;;;;;;7.22;3.10;;;20.00;80.40;;;;;;5071587;28;20434;-56
2022/09/24 12:23:21;;;;;;;7.75;3.55;;;19.90;80.20;;;;;;5071504;28;20078;-57
2022/09/24 12:25:52;;;;;;;8.05;3.03;;;20.00;79.90;;;;;;5070127;28;20032;-55
2022/09/24 12:34:37;;;;;;;7.45;3.53;;;20.00;80.00;;;;;;5069759;28;20032;-56
2022/09/24 12:37:21;;;;;;;7.88;3.70;;;20.00;79.90;;;;;;5069986;28;20024;-56
2022/09/24 12:40:16;;;;;;;6.88;3.60;;;19.90;79.90;;;;;;5069590;28;20131;-56
2022/09/24 12:42:54;;;;;;;8.20;3.88;;;19.90;80.00;;;;;;5070543;28;20120;-56
2022/09/24 12:45:25;;;;;;;7.80;3.17;;;19.90;80.00;;;;;;5069502;28;20313;-56
2022/09/24 12:47:59;;;;;;;7.35;3.13;;;19.90;80.00;;;;;;5070810;28;20081;-56
2022/09/24 12:50:31;;;;;;;8.07;3.45;;;19.90;80.10;;;;;;5070122;28;20032;-56
2022/09/24 12:53:00;;;;;;;6.93;3.25;;;19.90;80.10;;;;;;5069463;28;20028;-56
2022/09/24 12:55:33;;;;;;;7.07;3.33;;;19.90;80.10;;;;;;5071214;28;20383;-56
2022/09/24 12:58:05;;;;;;;9.48;3.50;;;19.90;80.20;;;;;;5070232;28;20066;-56
2022/09/24 13:00:40;;;;;;;7.65;3.20;;;19.90;80.10;;;;;;5070926;28;20020;-56
2022/09/24 13:03:32;;;;;;;7.18;3.50;;;19.90;80.10;;;;;;5070742;28;20094;-56
2022/09/24 13:06:01;;;;;;;6.63;3.80;;;19.90;80.40;;;;;;5070713;28;20039;-55
2022/09/24 13:08:38;;;;;;;7.55;3.80;;;19.80;80.30;;;;;;5070486;28;20039;-56
2022/09/24 13:11:33;;;;;;;6.85;3.67;;;19.80;80.30;;;;;;5070872;28;20032;-56
2022/09/24 13:14:18;;;;;;;7.97;4.03;;;19.80;80.40;;;;;;5069822;28;20040;-56
2022/09/24 13:16:49;;;;;;;10.02;4.50;;;19.80;80.50;;;;;;5070159;28;20070;-56
2022/09/24 13:19:45;;;;;;;9.25;3.60;;;19.80;80.60;;;;;;5070434;28;20025;-56
2022/09/24 13:22:24;;;;;;;8.65;3.92;;;19.80;80.60;;;;;;5069236;28;20037;-56
2022/09/24 13:25:13;;;;;;;7.70;3.70;;;19.80;80.80;;;;;;5069244;28;20035;-56
2022/09/24 13:27:44;;;;;;;8.55;3.95;;;19.80;80.80;;;;;;5069908;28;20108;-56
2022/09/24 13:30:20;;;;;;;8.05;4.05;;;19.80;80.80;;;;;;5052350;28;20036;-56
2022/09/24 13:33:14;;;;;;;10.02;3.97;;;19.80;80.80;;;;;;5068958;28;20328;-56
2022/09/24 13:36:15;;;;;;;7.43;3.80;;;19.80;80.90;;;;;;5069196;28;20029;-56
2022/09/24 13:39:16;;;;;;;9.52;3.97;;;19.80;81.00;;;;;;5068507;28;20060;-55
2022/09/24 13:42:13;;;;;;;8.70;4.07;;;19.80;81.00;;;;;;5070110;28;20033;-56
2022/09/24 13:45:20;;;;;;;9.57;3.88;;;19.80;81.60;;;;;;5068711;28;20355;-56